Time;durP1;ratioP1;P1;durP2;ratioP2;P2;SDS_P1;SDS_P2;PMS_P1;PMS_P2;Temp;Humidity;BMP_temperature;BMP_pressure;BME280_temperature;BME280_humidity;BME280_pressure;Samples;Min_cycle;Max_cycle;Signal;HPM_P1;HPM_P2
2022/06/02 00:01:39;;;;;;;4.18;2.55;;;12.70;99.90;;;;;;5072926;28;20103;-82
2022/06/02 00:04:11;;;;;;;3.97;2.47;;;12.70;99.90;;;;;;5072689;28;20025;-82
2022/06/02 00:06:45;;;;;;;3.08;2.20;;;12.70;99.90;;;;;;5074393;28;20396;-82
2022/06/02 00:09:23;;;;;;;3.65;2.35;;;12.70;99.90;;;;;;5076552;28;20025;-82
2022/06/02 00:12:18;;;;;;;3.20;2.28;;;12.70;99.90;;;;;;5076386;28;20024;-82
2022/06/02 00:15:18;;;;;;;4.10;2.70;;;12.80;99.90;;;;;;5057100;28;20480;-82
2022/06/02 00:18:09;;;;;;;4.88;3.15;;;12.80;99.90;;;;;;5076480;28;20408;-82
2022/06/02 00:20:37;;;;;;;3.85;2.55;;;12.80;99.90;;;;;;5074847;28;20052;-83
2022/06/02 00:23:36;;;;;;;5.50;2.72;;;12.80;99.90;;;;;;5076112;28;20508;-83
2022/06/02 00:26:20;;;;;;;5.00;2.88;;;12.90;99.90;;;;;;5076107;28;20040;-82
2022/06/02 00:29:04;;;;;;;4.45;3.45;;;12.80;99.90;;;;;;5076174;28;20028;-82
2022/06/02 00:31:33;;;;;;;4.38;2.88;;;12.70;99.90;;;;;;5075852;28;20028;-82
2022/06/02 00:34:06;;;;;;;4.13;2.72;;;12.50;99.90;;;;;;5076329;28;20023;-82
2022/06/02 00:37:09;;;;;;;3.50;2.60;;;12.50;99.90;;;;;;5091468;28;20069;-82
2022/06/02 00:39:35;;;;;;;4.45;2.92;;;12.40;99.90;;;;;;5075708;28;20032;-82
2022/06/02 00:42:25;;;;;;;5.65;2.80;;;12.40;99.90;;;;;;5075689;28;20024;-82
2022/06/02 00:45:08;;;;;;;4.13;2.47;;;12.40;99.90;;;;;;5074341;28;20055;-82
2022/06/02 00:47:51;;;;;;;5.75;3.25;;;12.50;99.90;;;;;;5076145;28;20098;-82
2022/06/02 00:50:25;;;;;;;3.80;2.53;;;12.50;99.90;;;;;;5075669;28;20021;-82
2022/06/02 00:53:06;;;;;;;5.35;3.15;;;12.60;99.90;;;;;;5075531;28;20670;-82
2022/06/02 00:59:03;;;;;;;3.83;2.60;;;12.60;99.90;;;;;;5076102;28;20127;-82
2022/06/02 01:01:34;;;;;;;3.75;2.13;;;12.50;99.90;;;;;;5075634;28;20103;-82
2022/06/02 01:04:09;;;;;;;;;;;12.40;99.90;;;;;;5053720;28;20434;-82
2022/06/02 01:06:53;;;;;;;2.97;2.05;;;12.40;99.90;;;;;;5053125;28;19904;-82
2022/06/02 01:09:34;;;;;;;3.35;2.35;;;12.40;99.90;;;;;;5053423;28;20035;-81
2022/06/02 01:12:07;;;;;;;3.05;2.20;;;12.40;99.90;;;;;;5052211;28;20020;-81
2022/06/02 01:15:14;;;;;;;3.03;2.20;;;12.40;99.90;;;;;;5053511;28;20083;-82
2022/06/02 01:17:56;;;;;;;3.42;2.35;;;12.40;99.90;;;;;;5054348;28;20035;-82
2022/06/02 01:20:28;;;;;;;3.47;2.42;;;12.50;99.90;;;;;;5057092;28;20032;-82
2022/06/02 01:23:27;;;;;;;3.80;3.10;;;12.50;99.90;;;;;;5055867;28;20107;-82
2022/06/02 01:26:01;;;;;;;4.75;2.90;;;12.50;99.90;;;;;;5056416;28;20054;-82
2022/06/02 01:28:46;;;;;;;4.32;3.17;;;12.50;99.90;;;;;;5056289;28;20112;-82
2022/06/02 01:31:11;;;;;;;4.65;2.53;;;12.60;99.90;;;;;;5054058;28;20052;-82
2022/06/02 01:34:01;;;;;;;3.35;2.80;;;12.50;99.90;;;;;;5053881;28;20362;-82
2022/06/02 01:36:45;;;;;;;5.15;2.70;;;12.50;99.90;;;;;;5052972;28;20071;-81
2022/06/02 01:39:34;;;;;;;6.00;3.00;;;12.50;99.90;;;;;;5054287;28;20032;-81
2022/06/02 01:42:48;;;;;;;3.33;2.50;;;12.50;99.90;;;;;;5054566;28;20100;-82
2022/06/02 01:45:26;;;;;;;5.10;2.35;;;12.40;99.90;;;;;;5053225;28;20116;-82
2022/06/02 01:48:16;;;;;;;6.57;2.50;;;12.30;99.90;;;;;;5054725;28;20098;-82
2022/06/02 01:51:25;;;;;;;4.57;2.70;;;12.20;99.90;;;;;;5054754;28;20021;-82
2022/06/02 01:53:54;;;;;;;5.43;2.80;;;12.20;99.90;;;;;;5053264;28;20400;-82
2022/06/02 01:56:54;;;;;;;6.35;3.28;;;12.10;99.90;;;;;;5054678;28;20045;-82
2022/06/02 01:59:33;;;;;;;4.55;3.08;;;12.00;99.90;;;;;;5053170;28;20029;-82
2022/06/02 02:02:02;;;;;;;7.03;4.93;;;11.90;99.90;;;;;;5054645;28;20018;-82
2022/06/02 02:04:33;;;;;;;9.65;6.07;;;11.90;99.90;;;;;;5053057;28;20033;-82
2022/06/02 02:07:05;;;;;;;10.90;6.43;;;11.80;99.90;;;;;;5055561;28;20169;-82
2022/06/02 02:09:56;;;;;;;7.72;5.68;;;11.90;99.90;;;;;;5053365;28;20025;-82
2022/06/02 02:12:51;;;;;;;7.53;4.97;;;11.90;99.90;;;;;;5054290;28;20477;-82
2022/06/02 02:15:58;;;;;;;7.28;5.13;;;12.00;99.90;;;;;;5054438;28;20028;-82
2022/06/02 02:18:48;;;;;;;7.10;4.45;;;12.00;99.90;;;;;;5044653;28;20076;-82
2022/06/02 02:21:35;;;;;;;5.72;4.40;;;12.00;99.90;;;;;;5054314;28;20086;-82
2022/06/02 02:24:39;;;;;;;6.10;4.18;;;12.00;99.90;;;;;;5054477;28;20032;-82
2022/06/02 02:27:11;;;;;;;5.25;3.25;;;12.00;99.90;;;;;;5043013;28;20127;-82
2022/06/02 02:30:04;;;;;;;3.17;2.65;;;12.00;99.90;;;;;;5054311;28;20066;-82
2022/06/02 02:32:51;;;;;;;9.55;3.03;;;12.00;99.90;;;;;;5054055;28;20469;-82
2022/06/02 02:36:00;;;;;;;3.50;2.58;;;11.90;99.90;;;;;;5054393;28;20385;-82
2022/06/02 02:39:03;;;;;;;2.85;2.50;;;11.90;99.90;;;;;;5054269;28;20074;-82
2022/06/02 02:41:37;;;;;;;3.35;2.28;;;11.90;99.90;;;;;;5054483;28;20032;-82
2022/06/02 02:44:24;;;;;;;3.25;2.63;;;11.90;99.90;;;;;;5054149;28;20029;-82
2022/06/02 02:47:06;;;;;;;3.50;2.28;;;11.90;99.90;;;;;;5054387;28;20025;-82
2022/06/02 02:50:01;;;;;;;4.90;3.20;;;11.90;99.90;;;;;;5054253;28;20021;-82
2022/06/02 02:52:46;;;;;;;4.53;3.25;;;12.00;99.90;;;;;;5054595;28;20025;-82
2022/06/02 02:55:23;;;;;;;3.70;2.90;;;12.00;99.90;;;;;;5053918;28;20021;-83
2022/06/02 02:58:14;;;;;;;4.78;3.03;;;12.00;99.90;;;;;;5054243;28;20025;-82
2022/06/02 03:01:03;;;;;;;6.93;2.90;;;12.00;99.90;;;;;;5054249;28;20028;-82
2022/06/02 03:03:52;;;;;;;3.95;3.00;;;11.90;99.90;;;;;;5052728;28;20029;-82
2022/06/02 03:06:30;;;;;;;6.22;4.47;;;11.90;99.90;;;;;;5050873;28;20041;-82
2022/06/02 03:09:09;;;;;;;6.55;4.63;;;11.90;99.90;;;;;;5054583;28;20108;-82
2022/06/02 03:11:53;;;;;;;9.18;5.70;;;11.90;99.90;;;;;;5054202;28;20030;-82
2022/06/02 03:14:37;;;;;;;6.63;5.50;;;11.90;99.90;;;;;;5053854;28;20057;-82
2022/06/02 03:17:12;;;;;;;9.98;6.68;;;11.80;99.90;;;;;;5054670;28;20017;-83
2022/06/02 03:19:59;;;;;;;9.07;5.70;;;11.80;99.90;;;;;;5052976;28;20108;-82
2022/06/02 03:23:15;;;;;;;6.45;5.43;;;11.80;99.90;;;;;;5054069;28;20036;-82
2022/06/02 03:26:08;;;;;;;7.05;5.22;;;11.80;99.90;;;;;;5035665;28;20045;-81
2022/06/02 03:28:58;;;;;;;6.63;5.43;;;11.80;99.90;;;;;;5052449;28;20066;-81
2022/06/02 03:31:27;;;;;;;5.97;5.03;;;11.80;99.90;;;;;;5059442;28;20021;-81
2022/06/02 03:34:02;;;;;;;6.95;5.22;;;11.80;99.90;;;;;;5059963;28;20021;-81
2022/06/02 03:36:42;;;;;;;7.45;5.30;;;11.80;99.90;;;;;;5054510;28;20062;-81
2022/06/02 03:39:16;;;;;;;8.20;5.07;;;11.80;99.90;;;;;;5054860;28;20033;-81
2022/06/02 03:42:06;;;;;;;9.35;5.05;;;11.80;99.90;;;;;;5059056;28;20029;-81
2022/06/02 03:44:37;;;;;;;7.75;5.60;;;11.80;99.90;;;;;;5060427;28;20021;-81
2022/06/02 03:47:23;;;;;;;8.57;5.88;;;11.80;99.90;;;;;;5059419;28;20021;-81
2022/06/02 03:49:48;;;;;;;5.40;4.85;;;11.80;99.90;;;;;;5059397;28;20071;-81
2022/06/02 03:52:35;;;;;;;8.23;4.78;;;11.80;99.90;;;;;;5058854;28;20473;-81
2022/06/02 03:55:30;;;;;;;7.13;5.18;;;11.70;99.90;;;;;;5058112;28;20395;-81
2022/06/02 03:58:09;;;;;;;7.50;5.70;;;11.70;99.90;;;;;;5058941;28;20025;-81
2022/06/02 04:00:52;;;;;;;7.35;4.72;;;11.80;99.90;;;;;;5058518;28;20043;-81
2022/06/02 04:03:43;;;;;;;5.13;3.90;;;11.80;99.90;;;;;;5058130;28;20091;-82
2022/06/02 04:06:42;;;;;;;4.78;3.33;;;11.80;99.90;;;;;;5058327;28;20025;-81
2022/06/02 04:09:27;;;;;;;4.18;2.95;;;11.80;99.90;;;;;;5058002;28;20029;-81
2022/06/02 04:15:20;;;;;;;5.32;3.80;;;11.80;99.90;;;;;;5057247;28;20051;-81
2022/06/02 04:18:18;;;;;;;7.20;4.18;;;11.70;99.90;;;;;;5057682;28;20022;-81
2022/06/02 04:21:14;;;;;;;5.05;3.83;;;11.70;99.90;;;;;;5057869;28;20024;-81
2022/06/02 04:24:01;;;;;;;4.63;3.60;;;11.70;99.90;;;;;;5057572;28;20047;-81
2022/06/02 04:26:42;;;;;;;5.32;4.07;;;11.70;99.90;;;;;;5056795;28;20151;-81
2022/06/02 04:29:25;;;;;;;5.23;4.30;;;11.70;99.90;;;;;;5056406;28;20061;-81
2022/06/02 04:31:55;;;;;;;7.22;5.20;;;11.80;99.90;;;;;;5055257;28;20385;-81
2022/06/02 04:34:55;;;;;;;6.22;4.80;;;11.80;99.90;;;;;;5056487;28;20021;-81
2022/06/02 04:38:05;;;;;;;6.35;5.00;;;11.80;99.90;;;;;;5056394;28;20087;-81
2022/06/02 04:40:55;;;;;;;5.63;4.75;;;11.80;99.90;;;;;;5051062;28;20087;-81
2022/06/02 04:43:33;;;;;;;8.23;5.93;;;11.80;99.90;;;;;;5054835;28;20091;-82
2022/06/02 04:46:20;;;;;;;6.97;5.05;;;11.80;99.90;;;;;;5056110;28;20539;-82
2022/06/02 04:49:21;;;;;;;6.80;4.55;;;11.80;99.90;;;;;;5055406;28;20028;-81
2022/06/02 04:52:10;;;;;;;8.57;6.57;;;11.80;99.90;;;;;;5033951;28;20025;-81
2022/06/02 04:54:59;;;;;;;8.30;5.90;;;11.90;99.90;;;;;;5054756;28;20025;-81
2022/06/02 04:57:34;;;;;;;8.27;5.65;;;11.90;99.90;;;;;;5055841;28;20056;-81
2022/06/02 05:00:06;;;;;;;9.45;6.43;;;11.90;99.90;;;;;;5054432;28;20029;-81
2022/06/02 05:02:43;;;;;;;8.70;6.68;;;11.90;99.90;;;;;;5055987;28;20048;-81
2022/06/02 05:05:14;;;;;;;7.40;6.10;;;11.90;99.90;;;;;;5055684;28;20481;-82
2022/06/02 05:07:58;;;;;;;;;;;11.90;99.90;;;;;;5054938;28;20508;-82
2022/06/02 05:10:46;;;;;;;8.85;6.05;;;11.90;99.90;;;;;;5056096;28;19909;-82
2022/06/02 05:13:37;;;;;;;9.77;6.15;;;11.90;99.90;;;;;;5054336;28;20025;-81
2022/06/02 05:16:27;;;;;;;10.23;7.25;;;12.00;99.90;;;;;;5055955;28;20104;-81
2022/06/02 05:19:21;;;;;;;9.32;7.40;;;12.00;99.90;;;;;;5055531;28;20040;-81
2022/06/02 05:22:23;;;;;;;8.25;5.93;;;12.10;99.90;;;;;;5047394;28;20502;-81
2022/06/02 05:25:08;;;;;;;7.07;5.35;;;12.10;99.90;;;;;;5046874;28;20094;-81
2022/06/02 05:27:45;;;;;;;9.63;6.47;;;12.20;99.90;;;;;;5055472;28;20062;-82
2022/06/02 05:30:36;;;;;;;9.57;7.32;;;12.30;99.90;;;;;;5055074;28;20025;-81
2022/06/02 05:33:27;;;;;;;8.97;6.53;;;12.30;99.90;;;;;;5055344;28;20021;-81
2022/06/02 05:36:19;;;;;;;6.55;5.38;;;12.30;99.90;;;;;;5054974;28;20466;-81
2022/06/02 05:38:57;;;;;;;10.80;7.90;;;12.30;99.90;;;;;;5048008;28;20037;-82
2022/06/02 05:41:35;;;;;;;8.23;6.57;;;12.30;99.90;;;;;;5054778;28;20454;-81
2022/06/02 05:44:06;;;;;;;7.63;5.68;;;12.30;99.90;;;;;;5054885;28;20052;-81
2022/06/02 05:46:56;;;;;;;12.70;8.23;;;12.40;99.90;;;;;;5055221;28;20107;-81
2022/06/02 05:49:30;;;;;;;11.45;7.80;;;12.40;99.90;;;;;;5054587;28;20079;-81
2022/06/02 05:52:47;;;;;;;9.07;6.95;;;12.50;99.90;;;;;;5054452;28;20025;-81
2022/06/02 05:55:53;;;;;;;9.10;7.22;;;12.50;99.90;;;;;;5031178;28;20033;-81
2022/06/02 05:58:46;;;;;;;7.55;6.38;;;12.50;99.90;;;;;;5015763;28;20037;-81
2022/06/02 06:01:28;;;;;;;10.30;7.68;;;12.50;99.90;;;;;;5053037;28;20119;-81
2022/06/02 06:04:12;;;;;;;;;;;12.60;99.90;;;;;;5054059;28;20032;-81
2022/06/02 06:06:59;;;;;;;11.02;7.78;;;12.70;99.90;;;;;;5054542;28;20361;-81
2022/06/02 06:09:54;;;;;;;10.55;7.65;;;12.60;99.90;;;;;;5054141;28;20029;-81
2022/06/02 06:12:56;;;;;;;11.32;8.85;;;12.70;99.90;;;;;;5054467;28;20032;-81
2022/06/02 06:15:40;;;;;;;12.45;9.32;;;12.80;99.90;;;;;;5054043;28;20060;-81
2022/06/02 06:18:41;;;;;;;11.32;8.25;;;12.80;99.90;;;;;;5054033;28;20025;-82
2022/06/02 06:21:25;;;;;;;11.80;8.43;;;12.90;99.90;;;;;;5054188;28;20032;-81
2022/06/02 06:24:22;;;;;;;11.80;8.95;;;13.00;99.90;;;;;;5054105;28;20072;-82
2022/06/02 06:26:57;;;;;;;9.85;8.68;;;13.00;99.90;;;;;;5054102;28;20112;-82
2022/06/02 06:30:05;;;;;;;9.98;8.48;;;13.00;99.90;;;;;;5054048;28;20082;-81
2022/06/02 06:33:03;;;;;;;8.77;7.10;;;13.10;99.90;;;;;;5043152;28;20098;-81
2022/06/02 06:36:05;;;;;;;13.13;9.23;;;13.20;99.90;;;;;;5053901;28;20017;-81
2022/06/02 06:38:51;;;;;;;12.35;9.43;;;13.20;99.90;;;;;;5053710;28;20036;-81
2022/06/02 06:41:20;;;;;;;11.98;8.75;;;13.30;99.90;;;;;;5049430;28;20040;-81
2022/06/02 06:44:15;;;;;;;11.15;9.20;;;13.50;99.90;;;;;;5053556;28;20056;-81
2022/06/02 06:46:56;;;;;;;13.25;11.15;;;13.70;99.90;;;;;;5053700;28;20100;-82
2022/06/02 06:49:40;;;;;;;11.90;9.93;;;13.90;99.90;;;;;;5053517;28;20379;-82
2022/06/02 06:52:30;;;;;;;12.27;9.60;;;14.00;99.90;;;;;;5053528;28;20028;-81
2022/06/02 06:55:14;;;;;;;10.95;8.60;;;14.20;99.90;;;;;;5052155;28;20027;-81
2022/06/02 06:58:12;;;;;;;10.73;7.93;;;14.40;99.90;;;;;;5053711;28;20025;-81
2022/06/02 07:01:00;;;;;;;12.05;8.65;;;14.50;99.90;;;;;;5052578;28;20436;-82
2022/06/02 07:03:48;;;;;;;8.77;7.38;;;14.60;99.90;;;;;;5053507;28;20053;-82
2022/06/02 07:06:34;;;;;;;10.82;6.70;;;14.60;99.90;;;;;;5052143;28;20162;-82
2022/06/02 07:09:12;;;;;;;10.18;6.90;;;14.70;99.90;;;;;;5053230;28;20377;-82
2022/06/02 07:14:47;;;;;;;8.55;7.03;;;15.00;99.90;;;;;;5053404;28;20075;-82
2022/06/02 07:17:35;;;;;;;8.40;6.00;;;15.10;99.90;;;;;;5056114;28;20025;-82
2022/06/02 07:20:26;;;;;;;10.70;6.40;;;15.30;99.90;;;;;;5057736;28;20017;-82
2022/06/02 07:22:52;;;;;;;8.60;6.53;;;15.40;99.90;;;;;;5055838;28;20393;-82
2022/06/02 07:25:27;;;;;;;8.80;6.03;;;15.50;99.90;;;;;;5057578;28;20025;-82
2022/06/02 07:28:09;;;;;;;9.30;6.57;;;15.60;99.90;;;;;;5057574;28;20029;-82
2022/06/02 07:31:09;;;;;;;5.65;4.13;;;15.70;99.90;;;;;;5055944;28;20108;-82
2022/06/02 07:34:01;;;;;;;7.95;4.10;;;15.90;99.90;;;;;;5055827;28;20392;-82
2022/06/02 07:36:35;;;;;;;5.22;4.00;;;16.10;99.90;;;;;;5057445;28;20155;-82
2022/06/02 07:39:22;;;;;;;3.47;3.05;;;16.10;99.90;;;;;;5057542;28;20412;-82
2022/06/02 07:42:31;;;;;;;4.78;2.75;;;16.10;99.90;;;;;;5057099;28;20025;-82
2022/06/02 07:45:33;;;;;;;4.95;2.55;;;16.10;99.90;;;;;;5035001;28;20053;-82
2022/06/02 07:47:59;;;;;;;5.22;2.10;;;16.10;99.90;;;;;;5057044;28;20025;-82
2022/06/02 07:50:33;;;;;;;3.10;2.00;;;16.20;99.90;;;;;;5057237;28;20024;-82
2022/06/02 07:53:17;;;;;;;2.47;1.70;;;16.30;99.90;;;;;;5056722;28;20112;-82
2022/06/02 07:56:12;;;;;;;2.58;1.60;;;16.30;99.90;;;;;;5057035;28;20032;-82
2022/06/02 07:58:59;;;;;;;3.20;2.00;;;16.50;99.90;;;;;;5057288;28;20021;-82
2022/06/02 08:02:02;;;;;;;2.20;1.60;;;16.50;99.90;;;;;;5057014;28;20021;-82
2022/06/02 08:05:09;;;;;;;3.08;1.70;;;16.50;99.90;;;;;;5055112;28;20481;-82
2022/06/02 08:07:49;;;;;;;2.50;1.50;;;16.50;99.90;;;;;;5055309;28;20083;-83
2022/06/02 08:10:34;;;;;;;3.92;1.60;;;16.50;99.90;;;;;;5055545;28;20028;-82
2022/06/02 08:13:19;;;;;;;2.75;1.50;;;16.60;99.90;;;;;;5055887;28;20064;-82
2022/06/02 08:15:57;;;;;;;2.33;1.52;;;16.80;99.90;;;;;;5056560;28;20492;-82
2022/06/02 08:18:37;;;;;;;2.95;1.42;;;16.90;99.90;;;;;;5056969;28;20033;-82
2022/06/02 08:21:26;;;;;;;2.60;1.63;;;17.00;99.90;;;;;;5056906;28;20374;-82
2022/06/02 08:24:14;;;;;;;3.38;1.70;;;17.10;99.90;;;;;;5056463;28;20496;-82
2022/06/02 08:27:04;;;;;;;2.97;1.65;;;17.20;99.90;;;;;;5055955;28;20102;-83
2022/06/02 08:29:59;;;;;;;4.53;1.98;;;17.20;99.90;;;;;;5056473;28;20036;-83
2022/06/02 08:32:46;;;;;;;2.40;1.20;;;17.40;99.90;;;;;;5056359;28;20029;-83
2022/06/02 08:35:26;;;;;;;1.58;1.00;;;17.50;99.90;;;;;;5055153;28;20021;-83
2022/06/02 08:38:23;;;;;;;1.80;1.30;;;17.50;99.90;;;;;;5056481;28;20024;-83
2022/06/02 08:41:35;;;;;;;5.30;1.67;;;17.40;99.90;;;;;;5056484;28;20032;-83
2022/06/02 08:44:23;;;;;;;2.78;1.40;;;17.40;99.90;;;;;;5054353;28;20121;-83
2022/06/02 08:47:26;;;;;;;1.75;1.10;;;17.60;99.90;;;;;;5054748;28;20107;-83
2022/06/02 08:49:54;;;;;;;1.60;1.02;;;17.70;99.90;;;;;;5056387;28;20059;-83
2022/06/02 08:52:57;;;;;;;3.17;1.38;;;17.90;99.90;;;;;;5054792;28;20036;-83
2022/06/02 08:56:05;;;;;;;2.75;1.15;;;18.00;99.90;;;;;;5054837;28;20025;-83
2022/06/02 08:58:36;;;;;;;2.63;1.73;;;18.10;99.90;;;;;;5052662;28;20033;-83
2022/06/02 09:01:08;;;;;;;3.42;1.65;;;18.20;99.90;;;;;;5055883;28;20431;-83
2022/06/02 09:04:09;;;;;;;1.95;1.35;;;18.10;99.90;;;;;;5054489;28;20113;-83
2022/06/02 09:07:16;;;;;;;2.88;1.05;;;18.10;99.90;;;;;;5054775;28;20024;-83
2022/06/02 09:10:12;;;;;;;1.80;1.40;;;18.20;99.90;;;;;;5055803;28;20033;-83
2022/06/02 09:12:50;;;;;;;3.72;1.10;;;18.40;99.90;;;;;;5055725;28;20083;-83
2022/06/02 09:15:41;;;;;;;2.28;1.30;;;18.60;99.90;;;;;;5056072;28;20505;-83
2022/06/02 09:18:10;;;;;;;2.33;1.10;;;18.80;99.90;;;;;;5056967;28;20381;-83
2022/06/02 09:21:06;;;;;;;1.70;1.10;;;19.00;99.90;;;;;;5056839;28;20025;-83
2022/06/02 09:24:02;;;;;;;2.35;1.10;;;19.10;99.90;;;;;;5056399;28;20021;-83
2022/06/02 09:26:39;;;;;;;3.92;1.20;;;19.20;99.90;;;;;;5051665;28;20037;-83
2022/06/02 09:29:15;;;;;;;2.05;1.33;;;19.20;99.90;;;;;;5055925;28;20059;-83
2022/06/02 09:31:59;;;;;;;1.88;1.00;;;19.00;99.90;;;;;;5055481;28;20139;-83
2022/06/02 09:34:28;;;;;;;1.70;0.93;;;18.90;99.90;;;;;;5054088;28;20405;-84
2022/06/02 09:37:01;;;;;;;1.65;0.88;;;18.80;99.90;;;;;;5054023;28;20029;-83
2022/06/02 09:39:57;;;;;;;1.30;0.80;;;18.70;99.90;;;;;;5053235;28;20029;-83
2022/06/02 09:42:35;;;;;;;1.98;0.95;;;18.60;99.90;;;;;;5055518;28;20430;-83
2022/06/02 09:45:31;;;;;;;2.08;1.30;;;18.50;99.90;;;;;;5055254;28;20031;-83
2022/06/02 09:48:27;;;;;;;5.97;1.70;;;18.40;99.90;;;;;;5055177;28;20473;-83
2022/06/02 09:51:15;;;;;;;3.28;1.70;;;18.40;99.90;;;;;;5055106;28;20461;-83
2022/06/02 09:54:11;;;;;;;2.35;1.38;;;18.30;99.90;;;;;;5054238;28;20021;-83
2022/06/02 09:56:47;;;;;;;2.30;1.40;;;18.30;99.90;;;;;;5055383;28;20048;-83
2022/06/02 09:59:26;;;;;;;2.80;1.60;;;18.40;99.90;;;;;;5055825;28;20025;-83
2022/06/02 10:02:30;;;;;;;4.45;2.00;;;18.50;99.90;;;;;;5056577;28;20104;-83
2022/06/02 10:05:10;;;;;;;3.25;1.40;;;18.70;99.90;;;;;;5056211;28;20029;-84
2022/06/02 10:07:58;;;;;;;2.15;1.58;;;18.80;99.90;;;;;;5055774;28;20039;-84
2022/06/02 10:10:47;;;;;;;3.00;1.67;;;18.90;99.90;;;;;;5055388;28;20025;-84
2022/06/02 10:13:52;;;;;;;2.30;1.35;;;19.00;99.90;;;;;;5054816;28;20043;-83
2022/06/02 10:16:50;;;;;;;5.32;1.50;;;19.00;99.90;;;;;;5046157;28;20029;-83
2022/06/02 10:19:31;;;;;;;2.58;1.25;;;18.90;99.90;;;;;;5053921;28;20021;-83
2022/06/02 10:22:05;;;;;;;3.08;1.60;;;18.90;99.90;;;;;;5054837;28;20104;-83
2022/06/02 10:24:50;;;;;;;2.25;1.38;;;19.00;99.90;;;;;;5054889;28;20465;-83
2022/06/02 10:27:49;;;;;;;2.83;1.38;;;19.00;99.90;;;;;;5053076;28;20065;-84
2022/06/02 10:30:43;;;;;;;3.55;1.20;;;19.00;99.90;;;;;;5054671;28;20060;-83
2022/06/02 10:33:24;;;;;;;3.67;1.50;;;19.00;99.90;;;;;;5053178;28;20552;-83
2022/06/02 10:36:26;;;;;;;3.33;1.50;;;19.00;99.90;;;;;;5053286;28;20078;-83
2022/06/02 10:39:02;;;;;;;2.88;1.45;;;19.10;99.90;;;;;;5054863;28;20074;-84
2022/06/02 10:41:55;;;;;;;3.35;1.30;;;19.10;99.90;;;;;;5060210;28;20025;-84
2022/06/02 10:44:44;;;;;;;1.92;1.25;;;19.20;99.90;;;;;;5058057;28;20070;-83
2022/06/02 10:47:46;;;;;;;4.20;1.40;;;19.30;99.90;;;;;;5060958;28;20362;-84
2022/06/02 10:50:50;;;;;;;2.88;1.40;;;19.30;99.90;;;;;;5053668;28;20033;-83
2022/06/02 10:53:40;;;;;;;2.00;1.38;;;19.30;99.90;;;;;;5052884;28;20090;-83
2022/06/02 10:56:34;;;;;;;3.03;1.45;;;19.20;99.90;;;;;;5053538;28;20092;-83
2022/06/02 10:59:19;;;;;;;1.60;1.30;;;19.20;99.90;;;;;;5048489;28;20044;-85
2022/06/02 11:02:12;;;;;;;2.38;1.38;;;19.20;99.90;;;;;;5052783;28;20060;-83
2022/06/02 11:05:20;;;;;;;2.08;1.33;;;19.30;99.90;;;;;;5053344;28;20029;-83
2022/06/02 11:08:16;;;;;;;3.22;1.40;;;19.40;99.90;;;;;;5053241;28;20473;-82
2022/06/02 11:11:02;;;;;;;2.13;1.20;;;19.40;99.90;;;;;;5050818;28;20124;-82
2022/06/02 11:13:46;;;;;;;3.45;1.50;;;19.30;99.90;;;;;;5050546;28;20021;-82
2022/06/02 11:16:49;;;;;;;3.08;1.23;;;19.30;99.90;;;;;;5051769;28;20082;-82
2022/06/02 11:19:54;;;;;;;1.92;1.10;;;19.20;99.90;;;;;;5051440;28;20025;-82
2022/06/02 11:22:46;;;;;;;1.50;1.00;;;19.30;99.90;;;;;;5042505;28;20037;-83
2022/06/02 11:25:15;;;;;;;1.50;1.00;;;19.30;99.90;;;;;;5040830;28;20048;-83
2022/06/02 11:28:16;;;;;;;1.65;1.00;;;19.40;99.90;;;;;;5052068;28;20075;-83
2022/06/02 11:31:37;;;;;;;3.22;1.30;;;19.50;99.90;;;;;;5053378;28;20043;-83
2022/06/02 11:34:36;;;;;;;1.63;1.10;;;19.60;99.90;;;;;;5031512;28;20117;-83
2022/06/02 11:37:18;;;;;;;2.17;1.33;;;19.80;99.90;;;;;;5053192;28;20013;-83
2022/06/02 11:40:25;;;;;;;4.00;1.67;;;19.90;99.90;;;;;;5053473;28;20108;-83
2022/06/02 11:42:57;;;;;;;2.25;1.40;;;20.00;99.90;;;;;;5014382;28;20068;-82
2022/06/02 11:46:05;;;;;;;2.00;1.25;;;20.10;99.90;;;;;;5031627;28;20596;-82
2022/06/02 11:48:40;;;;;;;1.67;1.23;;;20.10;99.90;;;;;;5034729;28;20033;-82
2022/06/02 11:51:24;;;;;;;2.08;1.45;;;20.20;99.90;;;;;;5051999;28;20416;-82
2022/06/02 11:54:02;;;;;;;2.38;1.35;;;20.30;99.90;;;;;;5053026;28;20060;-82
2022/06/02 11:56:45;;;;;;;3.00;1.17;;;20.50;99.90;;;;;;5052927;28;20029;-82
2022/06/02 11:59:33;;;;;;;2.90;1.40;;;20.70;99.90;;;;;;5052918;28;20025;-82
2022/06/02 12:02:32;;;;;;;2.17;1.23;;;20.70;99.90;;;;;;5054542;28;20025;-82
2022/06/02 12:05:00;;;;;;;3.30;1.35;;;20.70;99.90;;;;;;5053331;28;20053;-82
2022/06/02 12:07:38;;;;;;;3.03;1.35;;;20.70;99.90;;;;;;5055749;28;20040;-82
2022/06/02 12:10:24;;;;;;;2.80;1.17;;;20.60;99.90;;;;;;5061359;28;20016;-82
2022/06/02 12:12:56;;;;;;;1.67;1.10;;;20.70;99.90;;;;;;5041309;28;20025;-82
2022/06/02 12:15:24;;;;;;;2.50;1.00;;;20.70;99.90;;;;;;5052924;28;20507;-82
2022/06/02 12:18:35;;;;;;;4.00;1.30;;;20.80;99.90;;;;;;5056838;28;20064;-82
2022/06/02 12:21:26;;;;;;;4.35;1.42;;;20.70;99.90;;;;;;5053527;28;20063;-82
2022/06/02 12:24:23;;;;;;;4.35;1.52;;;20.80;99.90;;;;;;5055569;28;20489;-83
2022/06/02 12:27:28;;;;;;;1.95;1.05;;;21.00;99.90;;;;;;5055339;28;20465;-82
2022/06/02 12:30:06;;;;;;;2.97;1.10;;;21.20;99.90;;;;;;5052206;28;20451;-82
2022/06/02 12:33:05;;;;;;;2.65;1.30;;;21.30;99.90;;;;;;5054177;28;20028;-82
2022/06/02 12:35:42;;;;;;;2.30;1.23;;;21.10;99.90;;;;;;5057936;28;20025;-82
2022/06/02 12:38:39;;;;;;;2.88;1.05;;;21.00;99.90;;;;;;5074478;28;20067;-82
2022/06/02 12:41:24;;;;;;;2.28;1.10;;;20.90;99.90;;;;;;5054159;28;20052;-82
2022/06/02 12:44:17;;;;;;;1.60;0.85;;;21.00;99.90;;;;;;5055979;28;20017;-82
2022/06/02 12:47:04;;;;;;;6.32;1.50;;;20.90;99.90;;;;;;5061825;28;20104;-82
2022/06/02 12:49:45;;;;;;;4.40;1.23;;;20.90;99.90;;;;;;5062727;28;20033;-83
2022/06/02 12:52:44;;;;;;;1.70;1.00;;;21.00;99.90;;;;;;5050403;28;20096;-82
2022/06/02 12:55:47;;;;;;;3.50;1.10;;;21.30;99.90;;;;;;5054539;28;20108;-81
2022/06/02 12:58:15;;;;;;;;;;;21.70;99.90;;;;;;5064441;28;20020;-83
2022/06/02 13:01:00;;;;;;;;;;;22.10;98.20;;;;;;5056780;28;20333;-83
2022/06/02 13:03:44;;;;;;;;;;;22.40;97.70;;;;;;5056275;28;20368;-82
2022/06/02 13:06:15;;;;;;;;;;;22.50;97.20;;;;;;5058581;28;19916;-82
2022/06/02 13:09:03;;;;;;;;;;;22.50;96.10;;;;;;5057130;28;19913;-82
2022/06/02 13:11:29;;;;;;;;;;;22.50;96.50;;;;;;5046476;28;19932;-82
2022/06/02 13:13:54;;;;;;;;;;;22.60;96.20;;;;;;5055624;28;19948;-82
2022/06/02 13:16:26;;;;;;;;;;;22.70;95.70;;;;;;5055878;28;19912;-82
2022/06/02 13:18:57;;;;;;;;;;;22.80;95.10;;;;;;5055873;28;20353;-82
2022/06/02 13:21:26;;;;;;;;;;;22.80;94.90;;;;;;5061957;28;19909;-82
2022/06/02 13:24:11;;;;;;;;;;;23.00;94.50;;;;;;5055918;28;20305;-82
2022/06/02 13:26:54;;;;;;;;;;;22.90;92.90;;;;;;5057609;28;19969;-82
2022/06/02 13:29:46;;;;;;;;;;;23.10;92.70;;;;;;5056595;28;19909;-82
2022/06/02 13:32:31;;;;;;;;;;;23.30;92.30;;;;;;5048625;28;19943;-82
2022/06/02 13:35:09;;;;;;;;;;;23.40;91.30;;;;;;5055089;28;19908;-81
2022/06/02 13:37:54;;;;;;;;;;;23.30;89.30;;;;;;5055193;28;19909;-82
2022/06/02 13:40:22;;;;;;;;;;;23.20;91.00;;;;;;5054633;28;19913;-82
2022/06/02 13:43:01;;;;;;;;;;;23.10;87.90;;;;;;5055500;28;19915;-82
2022/06/02 13:45:33;;;;;;;;;;;22.90;90.30;;;;;;5054659;28;21597;-82
2022/06/02 13:48:13;;;;;;;;;;;22.70;90.30;;;;;;5055130;28;19966;-82
2022/06/02 13:50:59;;;;;;;;;;;22.50;90.70;;;;;;5055112;28;19909;-82
2022/06/02 13:57:30;;;;;;;;;;;22.30;90.40;;;;;;5030545;28;19924;-82
2022/06/02 13:57:32;;;;;;;;;;;22.20;90.90;;;;;;5065025;28;19908;-82
2022/06/02 13:59:54;;;;;;;;;;;22.00;90.50;;;;;;5033313;28;19909;-82
2022/06/02 14:02:25;;;;;;;;;;;21.80;90.90;;;;;;5043155;28;19904;-82
2022/06/02 14:05:06;;;;;;;;;;;21.70;90.60;;;;;;5054863;28;19905;-82
2022/06/02 14:07:50;;;;;;;;;;;21.60;90.50;;;;;;5053463;28;19915;-82
2022/06/02 14:10:16;;;;;;;;;;;21.50;91.40;;;;;;5054530;28;20387;-82
2022/06/02 14:12:45;;;;;;;;;;;21.40;90.90;;;;;;5052889;28;19909;-82
2022/06/02 14:15:11;;;;;;;;;;;21.20;91.80;;;;;;5045763;28;19988;-82
2022/06/02 14:17:45;;;;;;;;;;;21.10;92.60;;;;;;5054185;28;20009;-82
2022/06/02 14:20:14;;;;;;;;;;;20.90;94.00;;;;;;5054052;28;19908;-82
2022/06/02 14:22:55;;;;;;;;;;;20.90;96.70;;;;;;5054861;28;20352;-82
2022/06/02 14:25:28;;;;;;;;;;;20.80;97.40;;;;;;5054187;28;19908;-83
2022/06/02 14:28:16;;;;;;;;;;;20.80;96.90;;;;;;5055631;28;19909;-83
2022/06/02 14:30:45;;;;;;;;;;;20.70;98.90;;;;;;5008031;28;20419;-84
2022/06/02 14:33:12;;;;;;;;;;;20.70;99.90;;;;;;5054925;28;20341;-84
2022/06/02 14:35:51;;;;;;;;;;;20.60;99.90;;;;;;5054113;28;19913;-84
2022/06/02 14:38:35;;;;;;;;;;;20.30;99.90;;;;;;5054195;28;19904;-83
2022/06/02 14:41:19;;;;;;;;;;;20.10;99.90;;;;;;5054190;28;19913;-84
2022/06/02 14:43:48;;;;;;;;;;;19.90;99.90;;;;;;5053232;28;20276;-84
2022/06/02 14:46:16;;;;;;;;;;;19.80;99.90;;;;;;5054568;28;19905;-84